24h
KLIENDITUGI:
Saartelennuliinid: +372 58856336 (24/7)
Estairi piletikassa lennujaamas:
+372 6058887; +372 55603687

19.04.2018 hommikune Transaviabaltika lend KTB670 kell 07:00 (kohalik aeg) Tallinn - Kärdla väljalend ja KTB671 kell 07:45 Kärdla – Tallinn väljalend hilineb 3,5 tundi. KTB670 TLL-KDL uus väljalennu aeg on kell 10:30 (kohalik aeg) ja KTB671 KDL – TLL uus väljalennu aeg on kell 11:15 (kohalik aeg). Lennu hilinemise põhjustab udu Kärdla lennuväljal.

EEKA Kärdla lennuväli
FCEO32 EETN 190300 
TAF EEKA 190300Z 1904/1910 32018KT 3000 BR OVC004 TEMPO 1904/1906 
    1200 BCFG BR OVC002 BECMG 1906/1908 6000 BKN005= 

SPECI EEKA 190310Z 32015KT 0600 FG VV002 04/04 Q1022=

Kuupäev: 
19/04/2018